sensor_id;sensor_type;location;lat;lon;timestamp;noise_LAeq;noise_LA_min;noise_LA_max;noise_LA01;noise_LA95
71230;Laerm;57282;52.514;13.458;2022-12-18T00:02:20;61.44;40.49;74.37;;
71230;Laerm;57282;52.514;13.458;2022-12-18T00:04:47;63.47;44.56;74.15;;
71230;Laerm;57282;52.514;13.458;2022-12-18T00:07:13;60.24;42.16;74.92;;
71230;Laerm;57282;52.514;13.458;2022-12-18T00:09:40;62.86;38.63;73.61;;
71230;Laerm;57282;52.514;13.458;2022-12-18T00:12:07;60.87;36.99;78.96;;
71230;Laerm;57282;52.514;13.458;2022-12-18T00:14:34;61.45;35.24;77.00;;
71230;Laerm;57282;52.514;13.458;2022-12-18T00:17:03;59.61;38.61;73.43;;
71230;Laerm;57282;52.514;13.458;2022-12-18T00:19:29;63.68;42.13;77.31;;
71230;Laerm;57282;52.514;13.458;2022-12-18T00:21:56;60.97;39.13;74.13;;
71230;Laerm;57282;52.514;13.458;2022-12-18T00:24:23;61.42;37.11;74.43;;
71230;Laerm;57282;52.514;13.458;2022-12-18T00:26:50;59.74;41.00;73.50;;
71230;Laerm;57282;52.514;13.458;2022-12-18T00:29:16;56.53;39.63;70.22;;
71230;Laerm;57282;52.514;13.458;2022-12-18T00:31:43;64.01;38.51;81.39;;
71230;Laerm;57282;52.514;13.458;2022-12-18T00:34:12;63.07;41.25;79.60;;
71230;Laerm;57282;52.514;13.458;2022-12-18T00:36:40;60.88;42.01;75.78;;
71230;Laerm;57282;52.514;13.458;2022-12-18T00:39:07;59.16;38.25;72.68;;
71230;Laerm;57282;52.514;13.458;2022-12-18T00:41:34;61.19;38.16;76.24;;
71230;Laerm;57282;52.514;13.458;2022-12-18T00:44:19;60.06;38.16;71.22;;
71230;Laerm;57282;52.514;13.458;2022-12-18T00:46:47;64.60;40.87;77.53;;
71230;Laerm;57282;52.514;13.458;2022-12-18T00:49:16;62.97;38.23;76.22;;
71230;Laerm;57282;52.514;13.458;2022-12-18T00:51:44;60.46;39.94;76.85;;
71230;Laerm;57282;52.514;13.458;2022-12-18T00:54:11;62.16;37.55;75.51;;
71230;Laerm;57282;52.514;13.458;2022-12-18T00:56:38;60.90;36.92;76.91;;
71230;Laerm;57282;52.514;13.458;2022-12-18T00:59:05;58.79;41.39;83.82;;
71230;Laerm;57282;52.514;13.458;2022-12-18T01:01:33;62.45;44.86;73.80;;
71230;Laerm;57282;52.514;13.458;2022-12-18T01:04:01;61.36;36.93;79.23;;
71230;Laerm;57282;52.514;13.458;2022-12-18T01:06:30;59.41;36.72;84.22;;
71230;Laerm;57282;52.514;13.458;2022-12-18T01:08:57;62.24;36.59;77.15;;
71230;Laerm;57282;52.514;13.458;2022-12-18T01:11:24;63.31;42.66;78.14;;
71230;Laerm;57282;52.514;13.458;2022-12-18T01:13:52;60.04;36.65;74.47;;
71230;Laerm;57282;52.514;13.458;2022-12-18T01:16:19;58.07;34.90;73.35;;
71230;Laerm;57282;52.514;13.458;2022-12-18T01:18:46;66.14;40.30;81.82;;
71230;Laerm;57282;52.514;13.458;2022-12-18T01:21:15;61.43;38.30;74.20;;
71230;Laerm;57282;52.514;13.458;2022-12-18T01:23:43;60.88;37.48;79.11;;
71230;Laerm;57282;52.514;13.458;2022-12-18T01:26:12;59.08;40.05;72.32;;
71230;Laerm;57282;52.514;13.458;2022-12-18T01:28:40;63.51;40.45;74.87;;
71230;Laerm;57282;52.514;13.458;2022-12-18T01:31:16;63.77;41.65;76.39;;
71230;Laerm;57282;52.514;13.458;2022-12-18T01:33:44;60.02;36.06;79.44;;
71230;Laerm;57282;52.514;13.458;2022-12-18T01:36:17;63.12;36.37;88.93;;
71230;Laerm;57282;52.514;13.458;2022-12-18T01:38:46;63.23;38.92;81.31;;
71230;Laerm;57282;52.514;13.458;2022-12-18T01:41:15;63.35;42.41;77.91;;
71230;Laerm;57282;52.514;13.458;2022-12-18T01:43:52;59.42;35.49;76.86;;
71230;Laerm;57282;52.514;13.458;2022-12-18T01:46:22;59.76;35.70;74.25;;
71230;Laerm;57282;52.514;13.458;2022-12-18T01:48:55;63.05;35.92;76.48;;
71230;Laerm;57282;52.514;13.458;2022-12-18T01:51:23;64.61;38.24;76.42;;
71230;Laerm;57282;52.514;13.458;2022-12-18T01:53:51;58.99;35.57;79.05;;
71230;Laerm;57282;52.514;13.458;2022-12-18T01:56:20;57.47;38.50;75.11;;
71230;Laerm;57282;52.514;13.458;2022-12-18T01:58:55;58.72;36.72;79.54;;
71230;Laerm;57282;52.514;13.458;2022-12-18T02:01:24;54.79;37.04;72.60;;
71230;Laerm;57282;52.514;13.458;2022-12-18T02:03:51;61.02;39.37;76.65;;
71230;Laerm;57282;52.514;13.458;2022-12-18T02:06:23;64.76;36.95;77.36;;
71230;Laerm;57282;52.514;13.458;2022-12-18T02:09:08;59.19;35.83;77.54;;
71230;Laerm;57282;52.514;13.458;2022-12-18T02:11:46;57.00;37.71;70.55;;
71230;Laerm;57282;52.514;13.458;2022-12-18T02:14:26;58.73;36.06;76.90;;
71230;Laerm;57282;52.514;13.458;2022-12-18T02:17:03;60.35;34.39;76.66;;
71230;Laerm;57282;52.514;13.458;2022-12-18T02:19:47;57.03;34.60;77.14;;
71230;Laerm;57282;52.514;13.458;2022-12-18T02:22:33;60.19;36.86;81.81;;
71230;Laerm;57282;52.514;13.458;2022-12-18T02:25:23;59.14;34.14;76.98;;
71230;Laerm;57282;52.514;13.458;2022-12-18T02:27:55;60.15;35.84;75.61;;
71230;Laerm;57282;52.514;13.458;2022-12-18T02:30:26;59.86;36.00;75.09;;
71230;Laerm;57282;52.514;13.458;2022-12-18T02:32:57;58.32;34.34;72.83;;
71230;Laerm;57282;52.514;13.458;2022-12-18T02:35:29;59.47;35.61;76.63;;
71230;Laerm;57282;52.514;13.458;2022-12-18T02:37:57;59.30;37.07;74.59;;
71230;Laerm;57282;52.514;13.458;2022-12-18T02:40:27;58.95;35.14;78.20;;
71230;Laerm;57282;52.514;13.458;2022-12-18T02:43:06;61.92;34.52;77.46;;
71230;Laerm;57282;52.514;13.458;2022-12-18T02:45:33;61.74;34.57;77.75;;
71230;Laerm;57282;52.514;13.458;2022-12-18T02:48:00;60.65;34.14;77.14;;
71230;Laerm;57282;52.514;13.458;2022-12-18T02:50:35;50.41;35.99;68.09;;
71230;Laerm;57282;52.514;13.458;2022-12-18T02:53:11;49.30;35.77;78.71;;
71230;Laerm;57282;52.514;13.458;2022-12-18T02:55:54;59.61;34.64;74.45;;
71230;Laerm;57282;52.514;13.458;2022-12-18T02:58:34;65.47;36.52;79.17;;
71230;Laerm;57282;52.514;13.458;2022-12-18T03:01:11;56.71;34.13;73.83;;
71230;Laerm;57282;52.514;13.458;2022-12-18T03:03:47;64.94;37.36;80.10;;
71230;Laerm;57282;52.514;13.458;2022-12-18T03:06:23;62.84;40.02;75.27;;
71230;Laerm;57282;52.514;13.458;2022-12-18T03:08:57;61.69;37.12;77.15;;
71230;Laerm;57282;52.514;13.458;2022-12-18T03:11:28;61.53;38.06;77.10;;
71230;Laerm;57282;52.514;13.458;2022-12-18T03:14:15;59.35;33.92;76.64;;
71230;Laerm;57282;52.514;13.458;2022-12-18T03:16:46;66.02;33.41;79.35;;
71230;Laerm;57282;52.514;13.458;2022-12-18T03:19:19;60.58;34.76;78.16;;
71230;Laerm;57282;52.514;13.458;2022-12-18T03:21:52;59.74;33.77;75.10;;
71230;Laerm;57282;52.514;13.458;2022-12-18T03:24:22;60.56;34.92;79.12;;
71230;Laerm;57282;52.514;13.458;2022-12-18T03:26:55;61.57;37.32;79.28;;
71230;Laerm;57282;52.514;13.458;2022-12-18T03:29:31;62.08;34.07;76.15;;
71230;Laerm;57282;52.514;13.458;2022-12-18T03:32:06;58.92;36.31;79.03;;
71230;Laerm;57282;52.514;13.458;2022-12-18T03:34:37;53.76;34.43;71.64;;
71230;Laerm;57282;52.514;13.458;2022-12-18T03:37:06;63.02;37.46;76.79;;
71230;Laerm;57282;52.514;13.458;2022-12-18T03:39:36;61.54;33.45;78.44;;
71230;Laerm;57282;52.514;13.458;2022-12-18T03:42:08;56.04;34.27;71.75;;
71230;Laerm;57282;52.514;13.458;2022-12-18T03:44:49;60.67;32.82;79.45;;
71230;Laerm;57282;52.514;13.458;2022-12-18T03:47:27;49.94;33.23;65.43;;
71230;Laerm;57282;52.514;13.458;2022-12-18T03:49:59;61.45;34.41;77.38;;
71230;Laerm;57282;52.514;13.458;2022-12-18T03:52:36;61.80;33.35;77.26;;
71230;Laerm;57282;52.514;13.458;2022-12-18T03:55:07;57.57;33.66;73.16;;
71230;Laerm;57282;52.514;13.458;2022-12-18T03:57:37;62.86;36.99;79.29;;
71230;Laerm;57282;52.514;13.458;2022-12-18T04:00:10;62.01;37.21;79.82;;
71230;Laerm;57282;52.514;13.458;2022-12-18T04:02:40;48.17;33.18;70.78;;
71230;Laerm;57282;52.514;13.458;2022-12-18T04:05:10;63.21;32.94;78.31;;
71230;Laerm;57282;52.514;13.458;2022-12-18T04:07:41;55.04;34.13;73.35;;
71230;Laerm;57282;52.514;13.458;2022-12-18T04:10:12;64.17;32.91;79.62;;
71230;Laerm;57282;52.514;13.458;2022-12-18T04:12:40;60.58;34.66;77.02;;
71230;Laerm;57282;52.514;13.458;2022-12-18T04:15:11;63.43;33.17;77.23;;
71230;Laerm;57282;52.514;13.458;2022-12-18T04:17:39;55.29;34.85;72.43;;
71230;Laerm;57282;52.514;13.458;2022-12-18T04:20:11;61.62;37.17;79.97;;
71230;Laerm;57282;52.514;13.458;2022-12-18T04:22:38;58.44;33.89;75.20;;
71230;Laerm;57282;52.514;13.458;2022-12-18T04:25:05;59.82;34.60;74.77;;
71230;Laerm;57282;52.514;13.458;2022-12-18T04:27:32;58.37;34.61;73.41;;
71230;Laerm;57282;52.514;13.458;2022-12-18T04:29:58;40.50;33.59;46.91;;
71230;Laerm;57282;52.514;13.458;2022-12-18T04:32:26;61.78;34.28;78.59;;
71230;Laerm;57282;52.514;13.458;2022-12-18T04:34:53;58.47;32.47;74.59;;
71230;Laerm;57282;52.514;13.458;2022-12-18T04:37:20;63.25;36.42;77.54;;
71230;Laerm;57282;52.514;13.458;2022-12-18T04:39:47;58.62;32.20;77.96;;
71230;Laerm;57282;52.514;13.458;2022-12-18T04:42:13;58.94;32.56;76.87;;
71230;Laerm;57282;52.514;13.458;2022-12-18T04:44:40;58.45;33.47;74.80;;
71230;Laerm;57282;52.514;13.458;2022-12-18T04:47:07;56.70;33.08;73.44;;
71230;Laerm;57282;52.514;13.458;2022-12-18T04:49:35;58.47;37.20;76.26;;
71230;Laerm;57282;52.514;13.458;2022-12-18T04:52:01;58.80;33.32;75.92;;
71230;Laerm;57282;52.514;13.458;2022-12-18T04:54:28;60.00;37.51;75.25;;
71230;Laerm;57282;52.514;13.458;2022-12-18T04:56:55;51.86;33.55;68.18;;
71230;Laerm;57282;52.514;13.458;2022-12-18T04:59:21;57.49;33.59;73.74;;
71230;Laerm;57282;52.514;13.458;2022-12-18T05:01:48;60.08;33.52;78.16;;
71230;Laerm;57282;52.514;13.458;2022-12-18T05:04:14;57.74;32.05;75.72;;
71230;Laerm;57282;52.514;13.458;2022-12-18T05:06:42;58.33;32.16;75.70;;
71230;Laerm;57282;52.514;13.458;2022-12-18T05:09:09;59.42;33.58;79.43;;
71230;Laerm;57282;52.514;13.458;2022-12-18T05:11:36;61.50;37.06;79.03;;
71230;Laerm;57282;52.514;13.458;2022-12-18T05:14:02;58.93;34.94;75.49;;
71230;Laerm;57282;52.514;13.458;2022-12-18T05:16:29;61.69;35.58;75.60;;
71230;Laerm;57282;52.514;13.458;2022-12-18T05:18:56;59.92;34.87;77.76;;
71230;Laerm;57282;52.514;13.458;2022-12-18T05:21:22;60.01;35.44;78.56;;
71230;Laerm;57282;52.514;13.458;2022-12-18T05:23:50;56.71;33.88;74.12;;
71230;Laerm;57282;52.514;13.458;2022-12-18T05:26:18;57.73;32.59;75.27;;
71230;Laerm;57282;52.514;13.458;2022-12-18T05:28:45;57.80;32.83;73.81;;
71230;Laerm;57282;52.514;13.458;2022-12-18T05:31:12;61.49;35.92;77.82;;
71230;Laerm;57282;52.514;13.458;2022-12-18T05:33:39;41.67;34.11;51.64;;
71230;Laerm;57282;52.514;13.458;2022-12-18T05:36:08;58.59;32.35;76.72;;
71230;Laerm;57282;52.514;13.458;2022-12-18T05:38:38;57.58;32.07;76.58;;
71230;Laerm;57282;52.514;13.458;2022-12-18T05:41:08;61.55;33.18;77.73;;
71230;Laerm;57282;52.514;13.458;2022-12-18T05:43:37;62.93;32.59;78.63;;
71230;Laerm;57282;52.514;13.458;2022-12-18T05:46:05;60.84;33.58;73.63;;
71230;Laerm;57282;52.514;13.458;2022-12-18T05:48:33;56.43;31.86;74.45;;
71230;Laerm;57282;52.514;13.458;2022-12-18T05:51:05;62.72;34.57;76.92;;
71230;Laerm;57282;52.514;13.458;2022-12-18T05:53:32;59.42;31.65;77.13;;
71230;Laerm;57282;52.514;13.458;2022-12-18T05:56:00;58.24;34.57;78.02;;
71230;Laerm;57282;52.514;13.458;2022-12-18T05:58:30;59.37;34.53;74.27;;
71230;Laerm;57282;52.514;13.458;2022-12-18T06:00:57;49.94;32.08;69.55;;
71230;Laerm;57282;52.514;13.458;2022-12-18T06:03:24;53.89;33.72;72.83;;
71230;Laerm;57282;52.514;13.458;2022-12-18T06:05:51;57.75;30.91;75.76;;
71230;Laerm;57282;52.514;13.458;2022-12-18T06:08:18;57.14;33.10;76.56;;
71230;Laerm;57282;52.514;13.458;2022-12-18T06:10:50;64.27;33.53;80.09;;
71230;Laerm;57282;52.514;13.458;2022-12-18T06:13:18;62.06;35.20;80.59;;
71230;Laerm;57282;52.514;13.458;2022-12-18T06:15:46;59.91;33.82;76.54;;
71230;Laerm;57282;52.514;13.458;2022-12-18T06:18:13;57.25;32.78;73.55;;
71230;Laerm;57282;52.514;13.458;2022-12-18T06:20:39;58.35;31.30;79.15;;
71230;Laerm;57282;52.514;13.458;2022-12-18T06:23:07;56.37;31.89;72.29;;
71230;Laerm;57282;52.514;13.458;2022-12-18T06:25:33;53.29;34.58;70.36;;
71230;Laerm;57282;52.514;13.458;2022-12-18T06:28:00;60.70;32.69;76.29;;
71230;Laerm;57282;52.514;13.458;2022-12-18T06:30:26;56.19;33.77;73.97;;
71230;Laerm;57282;52.514;13.458;2022-12-18T06:32:54;56.15;33.13;73.01;;
71230;Laerm;57282;52.514;13.458;2022-12-18T06:35:22;56.87;35.07;69.88;;
71230;Laerm;57282;52.514;13.458;2022-12-18T06:37:48;56.85;35.07;74.45;;
71230;Laerm;57282;52.514;13.458;2022-12-18T06:40:15;58.18;34.11;70.44;;
71230;Laerm;57282;52.514;13.458;2022-12-18T06:42:42;55.10;34.48;70.58;;
71230;Laerm;57282;52.514;13.458;2022-12-18T06:45:09;57.82;35.42;73.38;;
71230;Laerm;57282;52.514;13.458;2022-12-18T06:47:36;58.31;33.67;76.00;;
71230;Laerm;57282;52.514;13.458;2022-12-18T06:50:06;56.88;32.81;72.67;;
71230;Laerm;57282;52.514;13.458;2022-12-18T06:52:33;60.29;38.18;77.05;;
71230;Laerm;57282;52.514;13.458;2022-12-18T06:55:00;64.91;36.96;79.59;;
71230;Laerm;57282;52.514;13.458;2022-12-18T06:57:26;57.06;34.60;74.93;;
71230;Laerm;57282;52.514;13.458;2022-12-18T06:59:53;58.93;33.56;78.84;;
71230;Laerm;57282;52.514;13.458;2022-12-18T07:02:20;60.10;34.36;75.50;;
71230;Laerm;57282;52.514;13.458;2022-12-18T07:04:49;60.64;35.77;74.39;;
71230;Laerm;57282;52.514;13.458;2022-12-18T07:07:19;56.88;33.26;72.47;;
71230;Laerm;57282;52.514;13.458;2022-12-18T07:09:45;58.65;33.66;76.43;;
71230;Laerm;57282;52.514;13.458;2022-12-18T07:12:13;57.30;37.24;72.06;;
71230;Laerm;57282;52.514;13.458;2022-12-18T07:14:39;59.06;34.70;76.57;;
71230;Laerm;57282;52.514;13.458;2022-12-18T07:17:07;59.49;35.06;74.56;;
71230;Laerm;57282;52.514;13.458;2022-12-18T07:19:34;56.64;32.40;75.44;;
71230;Laerm;57282;52.514;13.458;2022-12-18T07:22:01;61.52;34.73;79.93;;
71230;Laerm;57282;52.514;13.458;2022-12-18T07:24:29;56.04;33.51;70.10;;
71230;Laerm;57282;52.514;13.458;2022-12-18T07:26:56;61.43;32.60;75.44;;
71230;Laerm;57282;52.514;13.458;2022-12-18T07:29:23;57.18;34.32;73.54;;
71230;Laerm;57282;52.514;13.458;2022-12-18T07:31:49;61.38;35.23;76.79;;
71230;Laerm;57282;52.514;13.458;2022-12-18T07:34:16;56.83;34.57;75.33;;
71230;Laerm;57282;52.514;13.458;2022-12-18T07:36:43;57.43;34.39;78.36;;
71230;Laerm;57282;52.514;13.458;2022-12-18T07:39:10;57.70;33.57;71.04;;
71230;Laerm;57282;52.514;13.458;2022-12-18T07:41:39;57.54;33.86;75.35;;
71230;Laerm;57282;52.514;13.458;2022-12-18T07:44:09;43.40;34.56;56.63;;
71230;Laerm;57282;52.514;13.458;2022-12-18T07:46:36;59.20;34.66;75.56;;
71230;Laerm;57282;52.514;13.458;2022-12-18T07:49:04;58.86;34.56;73.49;;
71230;Laerm;57282;52.514;13.458;2022-12-18T07:51:31;57.64;36.91;73.50;;
71230;Laerm;57282;52.514;13.458;2022-12-18T07:53:57;59.39;35.95;75.11;;
71230;Laerm;57282;52.514;13.458;2022-12-18T07:56:24;62.18;41.87;75.40;;
71230;Laerm;57282;52.514;13.458;2022-12-18T07:58:52;61.76;36.93;77.31;;
71230;Laerm;57282;52.514;13.458;2022-12-18T08:01:18;62.00;42.16;75.93;;
71230;Laerm;57282;52.514;13.458;2022-12-18T08:03:45;60.17;37.91;76.42;;
71230;Laerm;57282;52.514;13.458;2022-12-18T08:06:12;59.73;35.57;74.44;;
71230;Laerm;57282;52.514;13.458;2022-12-18T08:08:38;58.35;35.69;76.38;;
71230;Laerm;57282;52.514;13.458;2022-12-18T08:11:06;62.08;36.20;76.07;;
71230;Laerm;57282;52.514;13.458;2022-12-18T08:13:33;53.00;34.72;69.41;;
71230;Laerm;57282;52.514;13.458;2022-12-18T08:16:04;59.68;35.33;72.83;;
71230;Laerm;57282;52.514;13.458;2022-12-18T08:18:36;61.57;36.95;74.80;;
71230;Laerm;57282;52.514;13.458;2022-12-18T08:21:09;60.40;35.45;75.97;;
71230;Laerm;57282;52.514;13.458;2022-12-18T08:23:39;54.15;36.59;70.62;;
71230;Laerm;57282;52.514;13.458;2022-12-18T08:26:06;54.25;37.09;71.42;;
71230;Laerm;57282;52.514;13.458;2022-12-18T08:28:33;62.63;37.12;77.55;;
71230;Laerm;57282;52.514;13.458;2022-12-18T08:31:02;60.82;37.01;77.80;;
71230;Laerm;57282;52.514;13.458;2022-12-18T08:33:29;59.78;39.62;76.26;;
71230;Laerm;57282;52.514;13.458;2022-12-18T08:35:58;61.36;41.13;75.51;;
71230;Laerm;57282;52.514;13.458;2022-12-18T08:38:25;63.74;37.56;80.09;;
71230;Laerm;57282;52.514;13.458;2022-12-18T08:40:58;59.52;36.70;75.18;;
71230;Laerm;57282;52.514;13.458;2022-12-18T08:43:25;60.45;43.33;73.39;;
71230;Laerm;57282;52.514;13.458;2022-12-18T08:46:12;59.25;40.06;77.49;;
71230;Laerm;57282;52.514;13.458;2022-12-18T08:48:43;62.35;36.22;80.00;;
71230;Laerm;57282;52.514;13.458;2022-12-18T08:51:10;56.47;39.15;69.36;;
71230;Laerm;57282;52.514;13.458;2022-12-18T08:53:37;64.42;47.04;76.49;;
71230;Laerm;57282;52.514;13.458;2022-12-18T08:56:16;61.10;41.66;74.38;;
71230;Laerm;57282;52.514;13.458;2022-12-18T08:58:43;65.67;42.27;80.36;;
71230;Laerm;57282;52.514;13.458;2022-12-18T09:01:12;63.54;41.99;76.12;;
71230;Laerm;57282;52.514;13.458;2022-12-18T09:03:39;58.95;37.78;73.69;;
71230;Laerm;57282;52.514;13.458;2022-12-18T09:06:07;60.42;38.53;75.02;;
71230;Laerm;57282;52.514;13.458;2022-12-18T09:08:36;60.65;41.12;75.53;;
71230;Laerm;57282;52.514;13.458;2022-12-18T09:11:03;62.78;37.70;73.96;;
71230;Laerm;57282;52.514;13.458;2022-12-18T09:13:30;63.19;36.68;77.54;;
71230;Laerm;57282;52.514;13.458;2022-12-18T09:15:58;62.47;40.48;74.71;;
71230;Laerm;57282;52.514;13.458;2022-12-18T09:18:26;62.01;41.24;73.03;;
71230;Laerm;57282;52.514;13.458;2022-12-18T09:20:53;61.11;40.47;74.34;;
71230;Laerm;57282;52.514;13.458;2022-12-18T09:23:20;64.38;44.21;76.77;;
71230;Laerm;57282;52.514;13.458;2022-12-18T09:25:48;61.25;44.06;75.26;;
71230;Laerm;57282;52.514;13.458;2022-12-18T09:28:17;62.23;44.70;75.59;;
71230;Laerm;57282;52.514;13.458;2022-12-18T09:30:48;62.61;40.77;76.39;;
71230;Laerm;57282;52.514;13.458;2022-12-18T09:33:16;62.91;42.68;77.20;;
71230;Laerm;57282;52.514;13.458;2022-12-18T09:35:45;63.13;41.02;75.63;;
71230;Laerm;57282;52.514;13.458;2022-12-18T09:38:16;60.24;36.10;72.71;;
71230;Laerm;57282;52.514;13.458;2022-12-18T09:40:46;64.45;43.27;75.80;;
71230;Laerm;57282;52.514;13.458;2022-12-18T09:43:19;62.94;46.74;73.50;;
71230;Laerm;57282;52.514;13.458;2022-12-18T09:45:51;64.31;45.26;76.97;;
71230;Laerm;57282;52.514;13.458;2022-12-18T09:48:25;65.02;44.48;78.34;;
71230;Laerm;57282;52.514;13.458;2022-12-18T09:51:02;62.83;41.64;77.66;;
71230;Laerm;57282;52.514;13.458;2022-12-18T09:53:35;61.29;42.73;73.99;;
71230;Laerm;57282;52.514;13.458;2022-12-18T09:56:06;63.00;40.81;76.26;;
71230;Laerm;57282;52.514;13.458;2022-12-18T09:58:45;61.73;42.00;76.16;;
71230;Laerm;57282;52.514;13.458;2022-12-18T10:01:18;69.79;43.50;92.56;;
71230;Laerm;57282;52.514;13.458;2022-12-18T10:03:48;64.91;44.35;96.71;;
71230;Laerm;57282;52.514;13.458;2022-12-18T10:06:23;63.18;45.06;76.35;;
71230;Laerm;57282;52.514;13.458;2022-12-18T10:09:00;64.58;46.14;75.61;;
71230;Laerm;57282;52.514;13.458;2022-12-18T10:11:42;63.01;43.21;74.11;;
71230;Laerm;57282;52.514;13.458;2022-12-18T10:14:19;63.62;46.51;83.22;;
71230;Laerm;57282;52.514;13.458;2022-12-18T10:17:00;61.31;41.81;75.35;;
71230;Laerm;57282;52.514;13.458;2022-12-18T10:19:41;63.67;47.61;76.73;;
71230;Laerm;57282;52.514;13.458;2022-12-18T10:22:31;63.53;42.64;78.52;;
71230;Laerm;57282;52.514;13.458;2022-12-18T10:25:18;65.30;42.15;77.77;;
71230;Laerm;57282;52.514;13.458;2022-12-18T10:27:48;60.77;41.36;83.20;;
71230;Laerm;57282;52.514;13.458;2022-12-18T10:30:20;59.91;40.18;71.31;;
71230;Laerm;57282;52.514;13.458;2022-12-18T10:32:47;63.94;44.44;76.78;;
71230;Laerm;57282;52.514;13.458;2022-12-18T10:35:19;62.85;40.14;77.54;;
71230;Laerm;57282;52.514;13.458;2022-12-18T10:38:03;64.09;44.98;76.01;;
71230;Laerm;57282;52.514;13.458;2022-12-18T10:40:31;65.69;50.61;78.03;;
71230;Laerm;57282;52.514;13.458;2022-12-18T10:43:11;62.09;46.30;73.55;;
71230;Laerm;57282;52.514;13.458;2022-12-18T10:45:39;63.84;41.91;76.90;;
71230;Laerm;57282;52.514;13.458;2022-12-18T10:48:19;64.27;43.66;77.21;;
71230;Laerm;57282;52.514;13.458;2022-12-18T10:50:50;65.51;46.96;82.01;;
71230;Laerm;57282;52.514;13.458;2022-12-18T10:53:23;66.43;46.25;87.23;;
71230;Laerm;57282;52.514;13.458;2022-12-18T10:55:53;67.95;51.33;90.45;;
71230;Laerm;57282;52.514;13.458;2022-12-18T10:58:25;62.19;47.49;75.37;;
71230;Laerm;57282;52.514;13.458;2022-12-18T11:01:09;61.60;41.61;75.90;;
71230;Laerm;57282;52.514;13.458;2022-12-18T11:03:39;64.99;42.20;77.17;;
71230;Laerm;57282;52.514;13.458;2022-12-18T11:06:11;60.97;43.95;74.72;;
71230;Laerm;57282;52.514;13.458;2022-12-18T11:08:41;64.91;46.26;75.56;;
71230;Laerm;57282;52.514;13.458;2022-12-18T11:11:24;63.57;46.96;75.57;;
71230;Laerm;57282;52.514;13.458;2022-12-18T11:14:00;64.34;41.98;80.52;;
71230;Laerm;57282;52.514;13.458;2022-12-18T11:16:33;60.78;44.87;79.83;;
71230;Laerm;57282;52.514;13.458;2022-12-18T11:19:20;62.59;45.82;77.60;;
71230;Laerm;57282;52.514;13.458;2022-12-18T11:21:50;62.72;47.49;73.54;;
71230;Laerm;57282;52.514;13.458;2022-12-18T11:24:29;62.73;44.78;76.56;;
71230;Laerm;57282;52.514;13.458;2022-12-18T11:26:58;63.55;47.62;76.38;;
71230;Laerm;57282;52.514;13.458;2022-12-18T11:29:34;64.94;45.33;76.52;;
71230;Laerm;57282;52.514;13.458;2022-12-18T11:32:25;63.23;44.67;77.96;;
71230;Laerm;57282;52.514;13.458;2022-12-18T11:35:01;64.40;44.21;80.24;;
71230;Laerm;57282;52.514;13.458;2022-12-18T11:37:31;64.52;42.77;79.83;;
71230;Laerm;57282;52.514;13.458;2022-12-18T11:40:06;63.00;41.90;75.79;;
71230;Laerm;57282;52.514;13.458;2022-12-18T11:42:40;64.21;45.05;76.44;;
71230;Laerm;57282;52.514;13.458;2022-12-18T11:45:27;64.74;47.99;74.57;;
71230;Laerm;57282;52.514;13.458;2022-12-18T11:48:02;65.77;47.91;81.02;;
71230;Laerm;57282;52.514;13.458;2022-12-18T11:50:42;63.70;43.62;76.74;;
71230;Laerm;57282;52.514;13.458;2022-12-18T11:53:12;64.80;46.17;79.26;;
71230;Laerm;57282;52.514;13.458;2022-12-18T11:55:51;63.10;44.53;77.61;;
71230;Laerm;57282;52.514;13.458;2022-12-18T11:58:37;64.88;43.00;75.64;;
71230;Laerm;57282;52.514;13.458;2022-12-18T12:01:16;64.22;45.91;76.75;;
71230;Laerm;57282;52.514;13.458;2022-12-18T12:04:09;63.74;48.35;77.65;;
71230;Laerm;57282;52.514;13.458;2022-12-18T12:06:51;62.10;47.74;77.96;;
71230;Laerm;57282;52.514;13.458;2022-12-18T12:09:29;63.06;39.63;76.30;;
71230;Laerm;57282;52.514;13.458;2022-12-18T12:12:22;64.72;50.66;78.48;;
71230;Laerm;57282;52.514;13.458;2022-12-18T12:15:04;64.40;47.10;76.23;;
71230;Laerm;57282;52.514;13.458;2022-12-18T12:17:43;64.21;44.96;79.19;;
71230;Laerm;57282;52.514;13.458;2022-12-18T12:20:20;64.31;43.35;77.98;;
71230;Laerm;57282;52.514;13.458;2022-12-18T12:22:57;63.55;45.66;76.25;;
71230;Laerm;57282;52.514;13.458;2022-12-18T12:25:37;64.80;44.05;77.58;;
71230;Laerm;57282;52.514;13.458;2022-12-18T12:28:23;63.50;48.08;75.24;;
71230;Laerm;57282;52.514;13.458;2022-12-18T12:31:06;64.73;43.50;77.78;;
71230;Laerm;57282;52.514;13.458;2022-12-18T12:33:49;61.04;39.96;74.46;;
71230;Laerm;57282;52.514;13.458;2022-12-18T12:36:29;64.41;46.74;74.49;;
71230;Laerm;57282;52.514;13.458;2022-12-18T12:39:03;64.02;46.92;81.04;;
71230;Laerm;57282;52.514;13.458;2022-12-18T12:41:35;62.65;42.73;77.57;;
71230;Laerm;57282;52.514;13.458;2022-12-18T12:44:25;66.68;46.50;81.19;;
71230;Laerm;57282;52.514;13.458;2022-12-18T12:46:59;67.54;47.31;98.35;;
71230;Laerm;57282;52.514;13.458;2022-12-18T12:49:31;64.10;52.00;74.75;;
71230;Laerm;57282;52.514;13.458;2022-12-18T12:52:07;66.03;49.42;80.80;;
71230;Laerm;57282;52.514;13.458;2022-12-18T12:54:35;64.46;46.98;83.41;;
71230;Laerm;57282;52.514;13.458;2022-12-18T12:57:12;63.23;46.11;76.92;;
71230;Laerm;57282;52.514;13.458;2022-12-18T12:59:52;63.88;44.11;83.96;;
71230;Laerm;57282;52.514;13.458;2022-12-18T13:02:31;60.60;48.04;72.74;;
71230;Laerm;57282;52.514;13.458;2022-12-18T13:05:11;63.40;45.38;77.19;;
71230;Laerm;57282;52.514;13.458;2022-12-18T13:07:51;62.29;45.81;76.04;;
71230;Laerm;57282;52.514;13.458;2022-12-18T13:10:35;64.09;48.13;77.08;;
71230;Laerm;57282;52.514;13.458;2022-12-18T13:13:05;65.31;47.86;77.71;;
71230;Laerm;57282;52.514;13.458;2022-12-18T13:15:39;65.16;43.42;79.15;;
71230;Laerm;57282;52.514;13.458;2022-12-18T13:18:15;64.86;42.25;78.39;;
71230;Laerm;57282;52.514;13.458;2022-12-18T13:20:45;59.22;42.12;73.72;;
71230;Laerm;57282;52.514;13.458;2022-12-18T13:23:35;62.79;44.57;78.67;;
71230;Laerm;57282;52.514;13.458;2022-12-18T13:26:33;61.80;48.40;73.93;;
71230;Laerm;57282;52.514;13.458;2022-12-18T13:29:01;66.03;48.79;78.30;;
71230;Laerm;57282;52.514;13.458;2022-12-18T13:32:21;65.70;45.01;76.25;;
71230;Laerm;57282;52.514;13.458;2022-12-18T13:34:48;63.99;47.08;77.31;;
71230;Laerm;57282;52.514;13.458;2022-12-18T13:37:45;61.76;45.49;73.12;;
71230;Laerm;57282;52.514;13.458;2022-12-18T13:40:55;61.74;47.73;74.84;;
71230;Laerm;57282;52.514;13.458;2022-12-18T13:43:39;64.14;48.65;75.91;;
71230;Laerm;57282;52.514;13.458;2022-12-18T13:46:21;63.81;47.33;76.41;;
71230;Laerm;57282;52.514;13.458;2022-12-18T13:49:00;65.38;46.73;76.75;;
71230;Laerm;57282;52.514;13.458;2022-12-18T13:51:29;64.96;51.36;77.02;;
71230;Laerm;57282;52.514;13.458;2022-12-18T13:54:01;66.40;44.23;79.44;;
71230;Laerm;57282;52.514;13.458;2022-12-18T13:56:31;66.32;45.16;77.71;;
71230;Laerm;57282;52.514;13.458;2022-12-18T13:59:20;64.57;43.95;76.59;;